Time;durP1;ratioP1;P1;durP2;ratioP2;P2;SDS_P1;SDS_P2;PMS_P1;PMS_P2;Temp;Humidity;BMP_temperature;BMP_pressure;BME280_temperature;BME280_humidity;BME280_pressure;Samples;Min_cycle;Max_cycle;Signal;HPM_P1;HPM_P2
2022/08/27 00:01:30;;;;;;;5.88;3.42;;;27.00;99.90;;;;;;4151619;28;20049;-67
2022/08/27 00:03:35;;;;;;;5.40;3.60;;;27.10;99.90;;;;;;4155716;28;20037;-66
2022/08/27 00:05:40;;;;;;;5.13;3.40;;;27.10;99.90;;;;;;4155019;28;21005;-66
2022/08/27 00:07:46;;;;;;;5.50;3.33;;;27.20;99.90;;;;;;4156369;28;20065;-65
2022/08/27 00:09:50;;;;;;;7.25;4.28;;;27.20;99.90;;;;;;4156035;28;20124;-65
2022/08/27 00:11:58;;;;;;;4.72;3.58;;;27.20;99.90;;;;;;4157198;28;20646;-65
2022/08/27 00:14:03;;;;;;;3.38;2.60;;;27.30;99.90;;;;;;4155639;28;20055;-67
2022/08/27 00:16:09;;;;;;;4.22;2.60;;;27.30;99.90;;;;;;4155944;28;20493;-66
2022/08/27 00:18:17;;;;;;;4.93;3.30;;;27.30;99.90;;;;;;4157919;28;20056;-65
2022/08/27 00:20:25;;;;;;;5.43;3.20;;;27.30;99.90;;;;;;4157501;28;20384;-67
2022/08/27 00:22:30;;;;;;;8.20;3.30;;;27.40;99.90;;;;;;4153830;28;20044;-66
2022/08/27 00:24:39;;;;;;;8.25;3.20;;;27.30;99.90;;;;;;4156240;28;20125;-67
2022/08/27 00:26:52;;;;;;;9.90;3.88;;;27.30;99.90;;;;;;4154474;28;20049;-66
2022/08/27 00:28:56;;;;;;;9.40;3.10;;;27.40;99.90;;;;;;4157285;28;20072;-67
2022/08/27 00:31:05;;;;;;;7.47;3.13;;;27.40;99.90;;;;;;4133692;28;20042;-67
2022/08/27 00:33:14;;;;;;;3.80;3.03;;;27.40;99.90;;;;;;4155429;28;20084;-67
2022/08/27 00:35:19;;;;;;;6.28;3.17;;;27.50;99.90;;;;;;4156864;28;20104;-67
2022/08/27 00:37:25;;;;;;;5.10;2.70;;;27.50;99.90;;;;;;4157393;28;20045;-67
2022/08/27 00:39:30;;;;;;;5.38;2.70;;;27.60;99.90;;;;;;4156398;28;20037;-68
2022/08/27 00:41:34;;;;;;;5.88;3.05;;;27.60;99.90;;;;;;4153379;28;20080;-67
2022/08/27 00:43:56;;;;;;;3.97;2.85;;;27.70;99.90;;;;;;4156256;28;20049;-66
2022/08/27 00:46:06;;;;;;;3.50;2.42;;;27.70;99.90;;;;;;4156344;28;20061;-66
2022/08/27 00:48:14;;;;;;;4.93;2.90;;;27.70;99.90;;;;;;4147602;28;20816;-66
2022/08/27 00:50:44;;;;;;;8.18;2.60;;;27.80;99.90;;;;;;4155729;28;20136;-66
2022/08/27 00:52:55;;;;;;;7.43;3.03;;;27.90;99.90;;;;;;4155225;28;20492;-65
2022/08/27 00:55:05;;;;;;;6.72;2.85;;;27.90;99.90;;;;;;4157318;28;20059;-66
2022/08/27 00:57:10;;;;;;;4.47;2.60;;;27.90;99.90;;;;;;4157150;28;20042;-65
2022/08/27 00:59:17;;;;;;;6.85;2.90;;;27.90;99.90;;;;;;4157088;28;20056;-66
2022/08/27 01:01:24;;;;;;;8.80;3.28;;;28.00;99.90;;;;;;4158080;28;20060;-65
2022/08/27 01:03:34;;;;;;;10.63;3.20;;;28.00;99.90;;;;;;4159343;28;20116;-65
2022/08/27 01:05:40;;;;;;;6.72;3.00;;;28.10;99.90;;;;;;4147548;28;20733;-66
2022/08/27 01:07:47;;;;;;;9.32;3.10;;;28.20;99.90;;;;;;4162511;28;20488;-66
2022/08/27 01:09:53;;;;;;;8.30;2.80;;;28.30;99.90;;;;;;4160416;28;20049;-65
2022/08/27 01:11:58;;;;;;;7.72;3.00;;;28.30;99.90;;;;;;4162103;28;20136;-65
2022/08/27 01:14:02;;;;;;;10.68;3.20;;;28.30;99.90;;;;;;4152928;28;20539;-65
2022/08/27 01:16:11;;;;;;;4.65;2.85;;;28.30;99.90;;;;;;4160034;28;20393;-65
2022/08/27 01:18:16;;;;;;;6.57;3.22;;;28.30;99.90;;;;;;4161034;28;20619;-65
2022/08/27 01:20:31;;;;;;;12.18;3.33;;;28.30;99.90;;;;;;4160737;28;20212;-65
2022/08/27 01:23:12;;;;;;;7.13;2.75;;;28.40;99.90;;;;;;4159165;28;20049;-65
2022/08/27 01:25:17;;;;;;;8.85;3.40;;;28.50;99.90;;;;;;4160969;28;20069;-66
2022/08/27 01:27:24;;;;;;;6.45;3.38;;;28.50;99.90;;;;;;4162524;28;20041;-66
2022/08/27 01:29:29;;;;;;;4.03;3.03;;;28.50;99.90;;;;;;4160000;28;20076;-64
2022/08/27 01:31:34;;;;;;;7.95;3.10;;;28.40;99.90;;;;;;4160791;28;20069;-65
2022/08/27 01:33:39;;;;;;;6.35;2.70;;;28.50;99.90;;;;;;4161701;28;20046;-65
2022/08/27 01:35:49;;;;;;;5.00;2.85;;;28.50;99.90;;;;;;4161705;28;20045;-66
2022/08/27 01:37:54;;;;;;;7.00;2.83;;;28.50;99.90;;;;;;4160422;28;20046;-65
2022/08/27 01:40:00;;;;;;;5.82;3.00;;;28.60;99.90;;;;;;4162079;28;20073;-66
2022/08/27 01:42:09;;;;;;;5.78;2.85;;;28.60;99.90;;;;;;4159548;28;20049;-65
2022/08/27 01:44:16;;;;;;;5.78;2.92;;;28.60;99.90;;;;;;4161885;28;20044;-65
2022/08/27 01:46:27;;;;;;;5.35;2.90;;;28.60;99.90;;;;;;4161146;28;20582;-66
2022/08/27 01:48:33;;;;;;;5.63;2.47;;;28.70;99.90;;;;;;4161098;28;20128;-66
2022/08/27 01:50:39;;;;;;;15.05;3.70;;;28.70;99.90;;;;;;4161766;28;20041;-64
2022/08/27 01:52:44;;;;;;;5.72;2.80;;;28.80;99.90;;;;;;4161381;28;20045;-65
2022/08/27 01:54:50;;;;;;;7.32;2.92;;;28.80;99.90;;;;;;4161483;28;20053;-66
2022/08/27 01:56:54;;;;;;;4.95;2.40;;;28.90;99.90;;;;;;4161607;28;20627;-65
2022/08/27 01:59:02;;;;;;;11.02;2.67;;;28.90;99.90;;;;;;4162087;28;20068;-67
2022/08/27 02:01:11;;;;;;;5.57;2.40;;;28.90;99.90;;;;;;4162146;28;20554;-66
2022/08/27 02:03:17;;;;;;;4.57;2.30;;;28.90;99.90;;;;;;4169468;28;20184;-66
2022/08/27 02:05:24;;;;;;;3.53;2.40;;;29.00;99.90;;;;;;4162267;28;20107;-66
2022/08/27 02:07:33;;;;;;;5.22;2.65;;;29.10;99.90;;;;;;4159825;28;20056;-65
2022/08/27 02:09:37;;;;;;;2.75;1.88;;;29.20;99.90;;;;;;4162297;28;20404;-66
2022/08/27 02:11:42;;;;;;;3.90;2.40;;;29.20;99.90;;;;;;4161733;28;20149;-66
2022/08/27 02:13:51;;;;;;;4.38;2.20;;;29.30;99.90;;;;;;4161931;28;20046;-66
2022/08/27 02:15:55;;;;;;;7.60;2.17;;;29.40;99.90;;;;;;4175197;28;20460;-66
2022/08/27 02:18:00;;;;;;;7.72;2.60;;;29.50;99.90;;;;;;4160660;28;20053;-66
2022/08/27 02:20:09;;;;;;;3.85;2.30;;;29.50;99.90;;;;;;4161817;28;20045;-66
2022/08/27 02:22:14;;;;;;;6.95;2.00;;;29.60;99.90;;;;;;4159908;28;20049;-66
2022/08/27 02:24:19;;;;;;;6.03;1.95;;;29.60;99.90;;;;;;4162452;28;20037;-66
2022/08/27 02:26:27;;;;;;;5.80;2.17;;;29.60;99.90;;;;;;4154916;28;20045;-66
2022/08/27 02:28:34;;;;;;;2.75;2.00;;;29.60;99.90;;;;;;4162072;28;20777;-66
2022/08/27 02:30:38;;;;;;;3.13;1.90;;;29.70;99.90;;;;;;4161808;28;20099;-66
2022/08/27 02:32:46;;;;;;;2.95;1.88;;;29.70;99.90;;;;;;4161620;28;20569;-65
2022/08/27 02:34:51;;;;;;;3.45;1.70;;;29.70;99.90;;;;;;4157497;28;20676;-65
2022/08/27 02:36:56;;;;;;;2.88;2.10;;;29.80;99.90;;;;;;4161421;28;20140;-65
2022/08/27 02:39:05;;;;;;;4.70;2.10;;;29.90;99.90;;;;;;4160766;28;20404;-65
2022/08/27 02:41:09;;;;;;;3.60;2.00;;;30.00;99.90;;;;;;4159673;28;20935;-67
2022/08/27 02:43:14;;;;;;;3.03;1.75;;;30.00;99.90;;;;;;4161586;28;20415;-66
2022/08/27 02:45:50;;;;;;;4.85;2.17;;;30.00;99.90;;;;;;4158426;28;20045;-66
2022/08/27 02:47:55;;;;;;;4.57;2.00;;;30.00;99.90;;;;;;4161369;28;20064;-66
2022/08/27 02:49:59;;;;;;;4.13;1.90;;;30.00;99.90;;;;;;4160279;28;20527;-66
2022/08/27 02:52:08;;;;;;;5.20;2.20;;;30.10;99.90;;;;;;4173770;28;20037;-66
2022/08/27 02:54:13;;;;;;;4.22;2.00;;;30.20;99.90;;;;;;4161483;28;20419;-65
2022/08/27 02:56:18;;;;;;;3.47;1.98;;;30.30;99.90;;;;;;4161267;28;20704;-64
2022/08/27 02:58:27;;;;;;;3.58;2.20;;;30.30;99.90;;;;;;4158159;28;20069;-66
2022/08/27 03:00:32;;;;;;;3.50;2.13;;;30.30;99.90;;;;;;4161172;28;20034;-66
2022/08/27 03:02:37;;;;;;;4.25;2.35;;;30.40;99.90;;;;;;4161175;28;20049;-66
2022/08/27 03:04:46;;;;;;;3.65;1.90;;;30.30;99.90;;;;;;4158934;28;20546;-66
2022/08/27 03:06:55;;;;;;;3.28;2.08;;;30.40;99.90;;;;;;4161051;28;20079;-66
2022/08/27 03:09:00;;;;;;;2.83;1.88;;;30.40;99.90;;;;;;4161287;28;20111;-66
2022/08/27 03:11:09;;;;;;;2.40;1.85;;;30.50;99.90;;;;;;4123876;28;20112;-66
2022/08/27 03:13:13;;;;;;;2.70;1.98;;;30.60;99.90;;;;;;4160982;28;20049;-66
2022/08/27 03:15:18;;;;;;;3.17;1.83;;;30.60;99.90;;;;;;4160980;28;20100;-67
2022/08/27 03:19:47;;;;;;;3.13;1.73;;;30.70;99.90;;;;;;4161108;28;20045;-66
2022/08/27 03:21:51;;;;;;;6.30;2.22;;;30.70;99.90;;;;;;4157428;28;20080;-67
2022/08/27 03:24:00;;;;;;;3.25;1.80;;;30.80;99.90;;;;;;4159959;28;20049;-67
2022/08/27 03:26:17;;;;;;;3.50;1.90;;;30.80;99.90;;;;;;4160124;28;20496;-67
2022/08/27 03:28:24;;;;;;;2.53;1.65;;;30.90;99.90;;;;;;4158399;28;20045;-66
2022/08/27 03:30:29;;;;;;;3.90;1.88;;;31.00;99.90;;;;;;4160516;28;20158;-66
2022/08/27 03:32:34;;;;;;;3.78;1.60;;;31.20;99.90;;;;;;4160880;28;20049;-67
2022/08/27 03:34:39;;;;;;;2.47;1.55;;;31.20;99.90;;;;;;4160607;28;20077;-66
2022/08/27 03:36:50;;;;;;;3.60;1.50;;;31.20;99.90;;;;;;4158824;28;20496;-67
2022/08/27 03:38:54;;;;;;;3.80;1.50;;;31.30;99.90;;;;;;4160954;28;20040;-67
2022/08/27 03:41:01;;;;;;;4.55;1.75;;;31.20;99.90;;;;;;4160706;28;20104;-67
2022/08/27 03:43:09;;;;;;;4.85;1.77;;;31.20;99.90;;;;;;4159027;28;20042;-67
2022/08/27 03:45:14;;;;;;;2.72;1.80;;;31.30;99.90;;;;;;4175609;28;20047;-68
2022/08/27 03:47:25;;;;;;;2.67;1.60;;;31.20;99.90;;;;;;4158490;28;20045;-67
2022/08/27 03:49:34;;;;;;;2.78;1.70;;;31.30;99.90;;;;;;4160496;28;20096;-67
2022/08/27 03:51:39;;;;;;;3.20;1.67;;;31.20;99.90;;;;;;4159490;28;20049;-67
2022/08/27 03:53:45;;;;;;;2.28;1.50;;;31.40;99.90;;;;;;4158350;28;20067;-68
2022/08/27 03:55:54;;;;;;;2.35;1.50;;;31.30;99.90;;;;;;4160651;28;20061;-66
2022/08/27 03:57:59;;;;;;;2.45;1.40;;;31.20;99.90;;;;;;4160686;28;20034;-66
2022/08/27 04:00:07;;;;;;;3.45;1.90;;;31.20;99.90;;;;;;4158188;28;20041;-66
2022/08/27 04:02:20;;;;;;;4.22;1.60;;;31.40;99.90;;;;;;4160132;28;20045;-67
2022/08/27 04:04:25;;;;;;;3.33;1.63;;;31.60;99.90;;;;;;4160405;28;20155;-67
2022/08/27 04:06:30;;;;;;;2.47;1.50;;;31.70;99.90;;;;;;4158293;28;20045;-67
2022/08/27 04:08:41;;;;;;;3.75;1.60;;;31.60;99.90;;;;;;4160598;28;20045;-68
2022/08/27 04:10:45;;;;;;;4.32;1.45;;;31.50;99.90;;;;;;4160509;28;20037;-68
2022/08/27 04:12:50;;;;;;;3.28;1.60;;;31.40;99.90;;;;;;4158521;28;20399;-68
2022/08/27 04:14:59;;;;;;;2.45;1.50;;;31.30;99.90;;;;;;4160761;28;20756;-67
2022/08/27 04:17:03;;;;;;;6.53;1.88;;;31.40;99.90;;;;;;4160332;28;20056;-67
2022/08/27 04:19:08;;;;;;;2.83;1.35;;;31.60;99.90;;;;;;4160297;28;20041;-67
2022/08/27 04:21:21;;;;;;;3.40;1.80;;;31.60;99.90;;;;;;4157582;28;20078;-67
2022/08/27 04:23:26;;;;;;;2.53;1.67;;;31.60;99.90;;;;;;4160192;28;20152;-66
2022/08/27 04:25:31;;;;;;;3.83;1.73;;;31.60;99.90;;;;;;4158033;28;20052;-67
2022/08/27 04:27:39;;;;;;;4.80;1.70;;;31.60;99.90;;;;;;4159437;28;20056;-67
2022/08/27 04:29:44;;;;;;;6.82;2.03;;;31.90;99.90;;;;;;4159707;28;20080;-67
2022/08/27 04:31:50;;;;;;;5.82;1.70;;;32.00;99.90;;;;;;4157830;28;20068;-66
2022/08/27 04:33:58;;;;;;;18.65;2.10;;;32.00;99.90;;;;;;4160087;28;20091;-67
2022/08/27 04:36:06;;;;;;;12.10;2.40;;;32.20;99.90;;;;;;4160132;28;20446;-64
2022/08/27 04:38:10;;;;;;;8.23;1.60;;;32.30;99.90;;;;;;4158074;28;20481;-63
2022/08/27 04:40:18;;;;;;;3.58;1.60;;;32.40;99.90;;;;;;4160428;28;20132;-63
2022/08/27 04:42:22;;;;;;;2.08;1.30;;;32.20;99.90;;;;;;4162852;28;20048;-62
2022/08/27 04:44:28;;;;;;;2.45;1.35;;;32.30;99.90;;;;;;4163590;28;20045;-62
2022/08/27 04:46:38;;;;;;;2.13;1.50;;;32.40;99.90;;;;;;4163060;28;20362;-62
2022/08/27 04:48:45;;;;;;;2.30;1.20;;;32.40;99.90;;;;;;4163320;28;20641;-63
2022/08/27 04:50:51;;;;;;;2.75;1.50;;;32.50;99.30;;;;;;4161093;28;20037;-65
2022/08/27 04:53:00;;;;;;;4.90;1.58;;;32.60;99.50;;;;;;4163354;28;20107;-65
2022/08/27 04:55:08;;;;;;;2.53;1.20;;;32.70;99.30;;;;;;4160664;28;20045;-66
2022/08/27 04:57:12;;;;;;;124.78;24.02;;;32.70;99.20;;;;;;4162153;28;20053;-67
2022/08/27 04:59:20;;;;;;;1999.90;628.63;;;32.50;99.50;;;;;;4163198;28;20049;-67
2022/08/27 05:01:26;;;;;;;1297.82;266.00;;;32.30;99.90;;;;;;4161784;28;20539;-67
2022/08/27 05:03:31;;;;;;;881.35;157.98;;;32.30;99.90;;;;;;4162944;28;20103;-69
2022/08/27 05:05:42;;;;;;;474.75;69.63;;;32.30;99.90;;;;;;4162799;28;20562;-68
2022/08/27 05:07:47;;;;;;;144.52;21.40;;;32.30;99.80;;;;;;4163183;28;20042;-67
2022/08/27 05:09:53;;;;;;;120.97;18.63;;;32.30;99.30;;;;;;4163380;28;20053;-67
2022/08/27 05:12:02;;;;;;;94.07;14.82;;;32.20;99.80;;;;;;4162808;28;20522;-66
2022/08/27 05:14:10;;;;;;;25.60;5.95;;;32.20;99.90;;;;;;4160393;28;20057;-67
2022/08/27 05:16:21;;;;;;;30.15;5.63;;;32.10;99.90;;;;;;4162800;28;20107;-67
2022/08/27 05:18:28;;;;;;;6.18;2.45;;;32.10;99.90;;;;;;4160096;28;20049;-67
2022/08/27 05:20:33;;;;;;;19.05;4.50;;;32.10;99.90;;;;;;4162185;28;20472;-66
2022/08/27 05:22:38;;;;;;;11.57;3.00;;;32.10;99.90;;;;;;4161579;28;20052;-65
2022/08/27 05:24:47;;;;;;;3.97;1.77;;;32.20;99.90;;;;;;4162859;28;20087;-66
2022/08/27 05:26:52;;;;;;;5.03;2.13;;;32.20;99.90;;;;;;4159614;28;20079;-65
2022/08/27 05:29:00;;;;;;;4.22;2.00;;;32.20;99.90;;;;;;4162825;28;20052;-65
2022/08/27 05:31:10;;;;;;;6.40;1.85;;;32.20;99.90;;;;;;4159907;28;20050;-64
2022/08/27 05:33:17;;;;;;;5.57;1.90;;;32.20;99.90;;;;;;4162769;28;20045;-65
2022/08/27 05:35:22;;;;;;;3.78;1.92;;;32.20;99.90;;;;;;4162669;28;20049;-64
2022/08/27 05:37:29;;;;;;;4.32;1.63;;;32.20;99.90;;;;;;4162452;28;20045;-64
2022/08/27 05:39:33;;;;;;;2.95;1.63;;;32.30;99.90;;;;;;4160637;28;20710;-65
2022/08/27 05:41:38;;;;;;;4.65;1.63;;;32.40;99.60;;;;;;4162355;28;20388;-65
2022/08/27 05:43:46;;;;;;;2.40;1.70;;;32.40;99.50;;;;;;4162625;28;20116;-66
2022/08/27 05:45:52;;;;;;;3.63;1.67;;;32.40;99.60;;;;;;4160421;28;20047;-66
2022/08/27 05:47:57;;;;;;;2.88;1.60;;;32.50;99.60;;;;;;4162168;28;20132;-66
2022/08/27 05:50:06;;;;;;;2.78;1.38;;;32.60;99.40;;;;;;4162608;28;20049;-66
2022/08/27 05:52:12;;;;;;;2.92;1.52;;;32.80;99.00;;;;;;4157116;28;20053;-66
2022/08/27 05:54:18;;;;;;;3.90;1.67;;;32.90;98.50;;;;;;4162439;28;20061;-64
2022/08/27 05:56:27;;;;;;;3.70;1.38;;;33.00;97.10;;;;;;4162965;28;20048;-63
2022/08/27 06:03:14;;;;;;;;;;;32.90;96.20;;;;;;4163402;28;20073;-64
2022/08/27 06:05:19;;;;;;;3.40;1.50;;;33.00;96.10;;;;;;4162652;28;19928;-64
2022/08/27 06:07:23;;;;;;;1.67;1.25;;;33.10;96.40;;;;;;4162649;28;20510;-64
2022/08/27 06:09:32;;;;;;;4.47;1.52;;;33.10;96.50;;;;;;4163201;28;20045;-64
2022/08/27 06:11:39;;;;;;;5.90;1.27;;;33.20;96.10;;;;;;4162554;28;20405;-65
2022/08/27 06:13:44;;;;;;;1.65;1.10;;;33.40;95.80;;;;;;4171372;28;20041;-64
2022/08/27 06:15:59;;;;;;;2.90;1.25;;;33.50;95.40;;;;;;4162008;28;20087;-65
2022/08/27 06:18:05;;;;;;;2.15;1.10;;;33.40;95.40;;;;;;4161619;28;20655;-64
2022/08/27 06:20:10;;;;;;;1.83;1.00;;;33.20;93.40;;;;;;4161869;28;20076;-65
2022/08/27 06:22:19;;;;;;;3.40;1.30;;;33.20;94.10;;;;;;4161667;28;20057;-63
2022/08/27 06:24:24;;;;;;;2.47;1.17;;;33.20;94.90;;;;;;4157171;28;20049;-65
2022/08/27 06:26:47;;;;;;;2.15;1.02;;;33.40;94.70;;;;;;4159732;28;20065;-65
2022/08/27 06:29:07;;;;;;;4.72;1.17;;;33.50;94.80;;;;;;4155897;28;20099;-62
2022/08/27 06:31:27;;;;;;;1.65;1.00;;;33.70;95.00;;;;;;4159691;28;20439;-65
2022/08/27 06:33:46;;;;;;;1.88;0.93;;;33.60;94.60;;;;;;4157345;28;20037;-65
2022/08/27 06:36:01;;;;;;;3.53;1.38;;;33.60;94.50;;;;;;4160913;28;20156;-64
2022/08/27 06:38:06;;;;;;;2.85;1.10;;;33.70;94.60;;;;;;4158994;28;20125;-65
2022/08/27 06:40:11;;;;;;;2.10;1.15;;;33.60;95.00;;;;;;4159223;28;20504;-66
2022/08/27 06:42:19;;;;;;;3.10;1.20;;;33.50;94.50;;;;;;4137165;28;20132;-63
2022/08/27 06:44:27;;;;;;;2.85;1.20;;;33.30;93.60;;;;;;4169786;28;20115;-66
2022/08/27 06:46:32;;;;;;;2.25;1.20;;;33.10;93.80;;;;;;4160615;28;20099;-64
2022/08/27 06:48:43;;;;;;;2.28;1.10;;;33.00;93.70;;;;;;4161222;28;20076;-64
2022/08/27 06:50:48;;;;;;;2.20;1.20;;;33.10;94.00;;;;;;4161111;28;20057;-64
2022/08/27 06:52:52;;;;;;;2.70;1.20;;;33.30;94.30;;;;;;4160402;28;20049;-64
2022/08/27 06:55:01;;;;;;;1.92;1.10;;;33.40;94.40;;;;;;4160416;28;20140;-64
2022/08/27 06:57:09;;;;;;;3.58;1.27;;;33.40;94.80;;;;;;4151788;28;20081;-65
2022/08/27 06:59:14;;;;;;;3.25;1.50;;;33.30;95.20;;;;;;4160201;28;20040;-64
2022/08/27 07:01:25;;;;;;;3.78;1.40;;;33.30;95.40;;;;;;4158891;28;20049;-64
2022/08/27 07:03:32;;;;;;;2.35;1.40;;;33.20;95.50;;;;;;4157206;28;20099;-64
2022/08/27 07:05:38;;;;;;;3.47;1.40;;;33.10;95.80;;;;;;4156891;28;20616;-64
2022/08/27 07:07:47;;;;;;;1.92;1.10;;;33.10;95.50;;;;;;4140176;28;20057;-64
2022/08/27 07:09:51;;;;;;;1.83;1.20;;;33.20;95.60;;;;;;4158888;28;20073;-64
2022/08/27 07:11:58;;;;;;;2.08;1.23;;;33.20;95.30;;;;;;4156349;28;20060;-64
2022/08/27 07:14:07;;;;;;;2.80;1.35;;;33.30;95.00;;;;;;4158819;28;20059;-64
2022/08/27 07:16:12;;;;;;;2.35;1.40;;;33.40;95.00;;;;;;4158675;28;20057;-64
2022/08/27 07:18:17;;;;;;;1.88;1.20;;;33.40;94.90;;;;;;4157125;28;20057;-65
2022/08/27 07:20:32;;;;;;;2.47;1.30;;;33.40;94.90;;;;;;4129222;28;20112;-64
2022/08/27 07:22:40;;;;;;;3.78;1.55;;;33.30;94.90;;;;;;4157324;28;20045;-65
2022/08/27 07:24:45;;;;;;;2.35;1.35;;;33.30;95.10;;;;;;4131983;28;20039;-63
2022/08/27 07:26:51;;;;;;;4.57;1.30;;;33.40;95.00;;;;;;4165488;28;20124;-63
2022/08/27 07:28:55;;;;;;;5.20;1.30;;;33.50;94.10;;;;;;4159916;28;20045;-64
2022/08/27 07:31:00;;;;;;;2.17;1.40;;;33.60;94.30;;;;;;4160183;28;20046;-64
2022/08/27 07:33:09;;;;;;;2.47;1.50;;;33.70;94.40;;;;;;4159796;28;20107;-63
2022/08/27 07:35:13;;;;;;;2.60;1.40;;;33.80;94.40;;;;;;4159447;28;20051;-64
2022/08/27 07:37:18;;;;;;;4.95;1.30;;;33.90;94.20;;;;;;4159924;28;20053;-64
2022/08/27 07:39:26;;;;;;;5.10;1.45;;;33.70;94.20;;;;;;4160124;28;20037;-64
2022/08/27 07:41:31;;;;;;;6.18;1.50;;;33.60;94.40;;;;;;4158700;28;20128;-64
2022/08/27 07:46:00;;;;;;;3.63;1.45;;;33.40;93.40;;;;;;4159659;28;20709;-64
2022/08/27 07:48:05;;;;;;;4.03;1.52;;;33.30;94.30;;;;;;4160070;28;20095;-64
2022/08/27 07:50:12;;;;;;;4.15;1.50;;;33.30;94.50;;;;;;4159036;28;20049;-64
2022/08/27 07:52:19;;;;;;;4.03;1.30;;;33.40;94.50;;;;;;4159852;28;20056;-65
2022/08/27 07:54:28;;;;;;;3.63;1.40;;;33.40;94.50;;;;;;4158207;28;20136;-65
2022/08/27 07:56:35;;;;;;;2.90;1.50;;;33.40;94.70;;;;;;4159987;28;20096;-64
2022/08/27 07:58:42;;;;;;;2.00;1.42;;;33.30;94.60;;;;;;4158914;28;20080;-64
2022/08/27 08:00:46;;;;;;;4.82;1.52;;;33.40;94.60;;;;;;4172949;28;20553;-64
2022/08/27 08:02:52;;;;;;;2.08;1.05;;;33.40;94.70;;;;;;4158569;28;20073;-64
2022/08/27 08:04:59;;;;;;;2.78;1.25;;;33.40;94.70;;;;;;4159904;28;20076;-65
2022/08/27 08:07:04;;;;;;;4.93;1.48;;;33.50;94.60;;;;;;4157627;28;20064;-64
2022/08/27 08:09:11;;;;;;;2.67;1.38;;;33.50;94.30;;;;;;4160029;28;20053;-65
2022/08/27 08:11:17;;;;;;;3.92;1.60;;;33.60;94.10;;;;;;4159412;28;20504;-64
2022/08/27 08:13:22;;;;;;;2.38;1.33;;;33.60;93.90;;;;;;4157653;28;20396;-63
2022/08/27 08:15:27;;;;;;;2.15;1.30;;;33.60;94.00;;;;;;4159965;28;20059;-63
2022/08/27 08:17:34;;;;;;;2.08;1.50;;;33.60;94.10;;;;;;4161436;28;20045;-63
2022/08/27 08:19:39;;;;;;;2.00;1.40;;;33.60;94.20;;;;;;4161382;28;20037;-64
2022/08/27 08:22:07;;;;;;;2.05;1.38;;;33.50;94.30;;;;;;4142897;28;20448;-64
2022/08/27 08:24:14;;;;;;;3.45;1.30;;;33.40;94.30;;;;;;4140650;28;20408;-64
2022/08/27 08:26:18;;;;;;;3.28;1.38;;;33.40;93.40;;;;;;4142482;28;20080;-64
2022/08/27 08:28:23;;;;;;;2.28;1.20;;;33.40;94.30;;;;;;4142634;28;20115;-63
2022/08/27 08:30:30;;;;;;;2.38;1.48;;;33.40;94.20;;;;;;4142171;28;20046;-63
2022/08/27 08:32:38;;;;;;;4.00;1.50;;;33.40;94.20;;;;;;4141117;28;20897;-64
2022/08/27 08:34:44;;;;;;;2.55;1.30;;;33.40;94.30;;;;;;4142388;28;20046;-63
2022/08/27 08:36:51;;;;;;;4.60;2.20;;;33.50;94.40;;;;;;4142409;28;20042;-64
2022/08/27 08:38:57;;;;;;;5.00;2.20;;;33.50;94.40;;;;;;4141433;28;20064;-64
2022/08/27 08:41:02;;;;;;;4.38;1.90;;;33.50;93.90;;;;;;4142049;28;20668;-64
2022/08/27 08:43:21;;;;;;;2.95;1.50;;;33.60;94.00;;;;;;4141145;28;20812;-64
2022/08/27 08:45:29;;;;;;;2.25;1.45;;;33.60;93.90;;;;;;4136367;28;20044;-64
2022/08/27 08:47:44;;;;;;;3.55;1.40;;;33.60;93.80;;;;;;4126221;28;20050;-64
2022/08/27 08:49:50;;;;;;;;;;;33.60;93.80;;;;;;4142897;28;20042;-64
2022/08/27 08:51:56;;;;;;;2.90;1.35;;;33.60;93.60;;;;;;4134719;28;20296;-64
2022/08/27 08:54:15;;;;;;;2.33;1.35;;;33.60;93.90;;;;;;4139563;28;20049;-64
2022/08/27 08:56:48;;;;;;;2.10;1.20;;;33.60;93.40;;;;;;4126892;28;20054;-65
2022/08/27 08:58:59;;;;;;;2.33;1.33;;;33.60;93.20;;;;;;4141113;28;20057;-64
2022/08/27 09:01:09;;;;;;;2.28;1.30;;;33.60;93.30;;;;;;4161367;28;20084;-65
2022/08/27 09:03:14;;;;;;;3.75;1.30;;;33.50;93.30;;;;;;4161083;28;20069;-63
2022/08/27 09:05:18;;;;;;;2.33;1.35;;;33.50;93.30;;;;;;4160942;28;20045;-64
2022/08/27 09:07:44;;;;;;;2.25;1.33;;;33.50;93.20;;;;;;4151010;28;20368;-64
2022/08/27 09:10:03;;;;;;;2.20;1.27;;;33.50;93.10;;;;;;4160654;28;20636;-65
2022/08/27 09:12:32;;;;;;;3.40;1.58;;;33.50;93.30;;;;;;4160710;28;20396;-65
2022/08/27 09:15:03;;;;;;;1.90;1.30;;;33.50;93.10;;;;;;4159728;28;20045;-65
2022/08/27 09:17:08;;;;;;;5.95;1.70;;;33.40;92.80;;;;;;4160984;28;20049;-64
2022/08/27 09:19:13;;;;;;;5.50;1.40;;;33.40;92.80;;;;;;4159544;28;20046;-64
2022/08/27 09:21:40;;;;;;;2.40;1.40;;;33.40;93.00;;;;;;4155451;28;20045;-64
2022/08/27 09:23:56;;;;;;;3.95;1.23;;;33.40;93.30;;;;;;4159555;28;20121;-64
2022/08/27 09:26:00;;;;;;;1.98;1.50;;;33.30;93.70;;;;;;4160576;28;20141;-64
2022/08/27 09:30:41;;;;;;;4.20;1.48;;;33.10;94.20;;;;;;4159716;28;20080;-64
2022/08/27 09:32:54;;;;;;;2.33;1.40;;;33.00;94.20;;;;;;4160533;28;20037;-64
2022/08/27 09:35:03;;;;;;;6.75;1.60;;;33.00;94.40;;;;;;4159167;28;20049;-64
2022/08/27 09:37:11;;;;;;;8.20;1.80;;;32.90;94.40;;;;;;4160146;28;20460;-64
2022/08/27 09:39:16;;;;;;;10.00;1.73;;;32.90;94.40;;;;;;4159719;28;20583;-65
2022/08/27 09:41:27;;;;;;;6.32;1.98;;;32.80;94.70;;;;;;4160342;28;20144;-64
2022/08/27 09:43:32;;;;;;;10.77;2.33;;;32.80;95.20;;;;;;4156930;28;20066;-63
2022/08/27 09:45:37;;;;;;;4.53;1.80;;;32.70;95.20;;;;;;4160327;28;20061;-63
2022/08/27 09:47:49;;;;;;;7.60;2.28;;;32.80;95.30;;;;;;4159105;28;20042;-63
2022/08/27 09:50:01;;;;;;;5.35;2.00;;;32.70;95.60;;;;;;4158463;28;20045;-64
2022/08/27 09:52:29;;;;;;;6.10;2.33;;;32.60;95.90;;;;;;4173818;28;20048;-64
2022/08/27 09:54:46;;;;;;;5.55;2.00;;;32.60;96.30;;;;;;4159367;28;20648;-63
2022/08/27 09:56:50;;;;;;;4.70;2.33;;;32.50;96.70;;;;;;4159842;28;20156;-64
2022/08/27 09:59:07;;;;;;;8.07;2.05;;;32.50;97.10;;;;;;4159388;28;20053;-64
2022/08/27 10:01:23;;;;;;;7.60;2.10;;;32.50;97.40;;;;;;4139488;28;20045;-64
2022/08/27 10:03:28;;;;;;;4.18;2.38;;;32.50;97.70;;;;;;4159541;28;20045;-64
2022/08/27 10:05:50;;;;;;;5.07;2.33;;;32.60;97.70;;;;;;4158670;28;20103;-64
2022/08/27 10:08:02;;;;;;;4.25;2.22;;;32.70;97.70;;;;;;4159726;28;20120;-65
2022/08/27 10:10:17;;;;;;;3.95;2.10;;;32.70;97.80;;;;;;4158844;28;20490;-64
2022/08/27 10:12:55;;;;;;;3.08;2.10;;;32.70;97.90;;;;;;4158356;28;20060;-64
2022/08/27 10:15:04;;;;;;;6.72;2.45;;;32.80;98.00;;;;;;4158737;28;20069;-65
2022/08/27 10:17:33;;;;;;;4.43;2.10;;;32.70;98.00;;;;;;4159407;28;20419;-64
2022/08/27 10:19:51;;;;;;;5.93;2.20;;;32.70;97.50;;;;;;4157052;28;20077;-65
2022/08/27 10:22:36;;;;;;;4.22;2.30;;;32.70;97.40;;;;;;4159042;28;20040;-65
2022/08/27 10:25:07;;;;;;;4.07;2.10;;;32.70;97.60;;;;;;4158879;28;20055;-65
2022/08/27 10:27:38;;;;;;;3.70;2.20;;;32.60;97.10;;;;;;4159809;28;20054;-65
2022/08/27 10:29:49;;;;;;;3.67;2.40;;;32.60;96.90;;;;;;4158062;28;20056;-64
2022/08/27 10:32:07;;;;;;;6.15;2.92;;;32.60;97.00;;;;;;4158053;28;20115;-64
2022/08/27 10:34:40;;;;;;;7.40;3.13;;;32.60;97.00;;;;;;4159282;28;20048;-64
2022/08/27 10:37:15;;;;;;;6.70;3.40;;;32.60;97.20;;;;;;4159239;28;20984;-65
2022/08/27 10:40:01;;;;;;;5.78;2.83;;;32.50;97.20;;;;;;4156803;28;20061;-65
2022/08/27 10:42:27;;;;;;;8.80;3.78;;;32.50;97.00;;;;;;4157598;28;20041;-64
2022/08/27 10:44:49;;;;;;;5.32;3.80;;;32.40;96.90;;;;;;4159516;28;20080;-65
2022/08/27 10:47:23;;;;;;;5.35;3.05;;;32.40;97.00;;;;;;4156458;28;20073;-64
2022/08/27 10:50:00;;;;;;;5.80;3.47;;;32.30;97.00;;;;;;4158835;28;20041;-64
2022/08/27 10:52:15;;;;;;;5.03;3.42;;;32.40;97.10;;;;;;4157681;28;20049;-64
2022/08/27 10:54:32;;;;;;;6.00;3.10;;;32.30;97.40;;;;;;4158089;28;20092;-63
2022/08/27 10:56:44;;;;;;;5.95;3.15;;;32.30;97.70;;;;;;4157994;28;20049;-64
2022/08/27 10:59:22;;;;;;;6.97;4.07;;;32.30;97.70;;;;;;4157288;28;20073;-64
2022/08/27 11:01:37;;;;;;;6.53;3.45;;;32.20;97.80;;;;;;4159031;28;20051;-64
2022/08/27 11:04:02;;;;;;;5.22;3.33;;;32.10;98.00;;;;;;4158814;28;20595;-65
2022/08/27 11:06:33;;;;;;;3.97;3.45;;;32.10;97.90;;;;;;4157094;28;20033;-63
2022/08/27 11:08:51;;;;;;;6.07;2.78;;;32.10;98.00;;;;;;4159389;28;20049;-63
2022/08/27 11:10:59;;;;;;;4.15;2.80;;;32.10;98.10;;;;;;4158911;28;20096;-63
2022/08/27 11:13:38;;;;;;;24.00;5.40;;;32.00;98.00;;;;;;4156188;28;20144;-64
2022/08/27 11:15:48;;;;;;;27.42;5.35;;;31.90;98.60;;;;;;4154366;28;20041;-65
2022/08/27 11:18:16;;;;;;;15.30;3.40;;;31.80;98.70;;;;;;4140847;28;20157;-64
2022/08/27 11:21:02;;;;;;;7.40;3.67;;;31.80;98.60;;;;;;4157215;28;20045;-64
2022/08/27 11:23:09;;;;;;;9.18;3.80;;;31.70;98.70;;;;;;4141676;28;20073;-63
2022/08/27 11:25:32;;;;;;;8.32;3.45;;;31.70;98.80;;;;;;4158040;28;20056;-63
2022/08/27 11:27:39;;;;;;;7.75;3.33;;;31.70;99.00;;;;;;4125035;28;20061;-62